Time;durP1;ratioP1;P1;durP2;ratioP2;P2;SDS_P1;SDS_P2;PMS_P1;PMS_P2;Temp;Humidity;BMP_temperature;BMP_pressure;BME280_temperature;BME280_humidity;BME280_pressure;Samples;Min_cycle;Max_cycle;Signal;HPM_P1;HPM_P2
2021/05/28 00:01:01;;;;;;;4.33;2.40;;;20.30;54.30;;;;;;5028022;28;20521;-83
2021/05/28 00:03:28;;;;;;;2.30;2.13;;;20.20;54.30;;;;;;5027656;28;20443;-83
2021/05/28 00:05:58;;;;;;;2.23;1.73;;;20.20;54.30;;;;;;5027527;28;20439;-83
2021/05/28 00:08:28;;;;;;;2.07;1.97;;;20.20;54.30;;;;;;5027664;28;20457;-83
2021/05/28 00:10:56;;;;;;;2.00;1.53;;;20.20;54.40;;;;;;5027823;28;20499;-83
2021/05/28 00:13:23;;;;;;;2.27;2.00;;;20.10;54.30;;;;;;5026684;28;20543;-83
2021/05/28 00:15:51;;;;;;;2.93;1.70;;;20.10;54.40;;;;;;5027720;28;20414;-83
2021/05/28 00:18:18;;;;;;;2.07;1.87;;;20.10;54.50;;;;;;5027103;28;20443;-83
2021/05/28 00:20:46;;;;;;;1.80;1.70;;;20.10;54.50;;;;;;5027303;28;20440;-83
2021/05/28 00:23:13;;;;;;;2.63;1.87;;;20.10;54.50;;;;;;5027273;28;20471;-83
2021/05/28 00:25:42;;;;;;;2.60;1.90;;;20.00;54.40;;;;;;5027197;28;20427;-83
2021/05/28 00:28:09;;;;;;;1.83;1.70;;;20.00;54.50;;;;;;5027375;28;20433;-83
2021/05/28 00:30:37;;;;;;;2.13;2.00;;;20.00;54.50;;;;;;5027315;28;20482;-83
2021/05/28 00:33:04;;;;;;;3.03;1.80;;;20.00;54.40;;;;;;5027575;28;20576;-83
2021/05/28 00:35:32;;;;;;;1.90;1.80;;;20.00;54.50;;;;;;5027732;28;20466;-83
2021/05/28 00:37:59;;;;;;;1.90;1.80;;;20.00;54.60;;;;;;5027338;28;20431;-82
2021/05/28 00:40:27;;;;;;;2.27;2.03;;;20.00;54.60;;;;;;5027179;28;20475;-83
2021/05/28 00:42:55;;;;;;;4.50;1.60;;;19.90;54.50;;;;;;5027382;28;20414;-83
2021/05/28 00:45:23;;;;;;;1.67;1.57;;;19.90;54.60;;;;;;5027304;28;20525;-83
2021/05/28 00:47:50;;;;;;;2.50;1.70;;;19.90;54.60;;;;;;5027128;28;20435;-83
2021/05/28 00:50:18;;;;;;;2.10;1.90;;;19.90;54.70;;;;;;5027341;28;20514;-83
2021/05/28 00:52:45;;;;;;;2.23;1.80;;;19.80;54.60;;;;;;5026819;28;20456;-83
2021/05/28 00:55:13;;;;;;;3.40;1.97;;;19.80;54.60;;;;;;5027141;28;20453;-83
2021/05/28 00:57:41;;;;;;;1.97;1.80;;;19.80;54.70;;;;;;5026580;28;20471;-83
2021/05/28 01:00:10;;;;;;;1.90;1.80;;;19.80;54.70;;;;;;5026701;28;20529;-82
2021/05/28 01:02:38;;;;;;;2.07;1.87;;;19.80;54.60;;;;;;5026402;28;20458;-83
2021/05/28 01:05:06;;;;;;;3.23;1.47;;;19.80;54.70;;;;;;5023858;28;20475;-82
2021/05/28 01:07:34;;;;;;;2.20;2.00;;;19.80;54.70;;;;;;5027618;28;20502;-83
2021/05/28 01:10:01;;;;;;;2.20;2.00;;;19.70;54.60;;;;;;5026343;28;20414;-83
2021/05/28 01:12:29;;;;;;;1.93;1.83;;;19.70;54.60;;;;;;5026571;28;20435;-83
2021/05/28 01:14:57;;;;;;;2.13;2.03;;;19.70;54.60;;;;;;5026490;28;20443;-83
2021/05/28 01:17:25;;;;;;;1.63;1.53;;;19.70;54.60;;;;;;5026351;28;20414;-83
2021/05/28 01:19:53;;;;;;;1.93;1.80;;;19.70;54.70;;;;;;5026418;28;20576;-83
2021/05/28 01:22:21;;;;;;;2.57;2.40;;;19.60;54.80;;;;;;5026347;28;20467;-83
2021/05/28 01:24:49;;;;;;;4.67;1.87;;;19.60;54.80;;;;;;5026829;28;20546;-83
2021/05/28 01:27:17;;;;;;;2.30;1.70;;;19.60;54.80;;;;;;5025991;28;20490;-83
2021/05/28 01:29:44;;;;;;;2.13;1.60;;;19.60;54.80;;;;;;5026507;28;20443;-82
2021/05/28 01:32:12;;;;;;;2.13;2.00;;;19.60;54.70;;;;;;5025953;28;20410;-83
2021/05/28 01:34:39;;;;;;;1.87;1.77;;;19.60;54.80;;;;;;5026413;28;20502;-83
2021/05/28 01:37:06;;;;;;;1.70;1.57;;;19.60;54.80;;;;;;5025922;28;20463;-82
2021/05/28 01:39:42;;;;;;;2.17;1.90;;;19.60;54.80;;;;;;5025631;28;20499;-82
2021/05/28 01:42:09;;;;;;;1.83;1.73;;;19.60;54.80;;;;;;5026374;28;20451;-83
2021/05/28 01:44:36;;;;;;;2.30;1.70;;;19.60;54.80;;;;;;5025972;28;20483;-83
2021/05/28 01:47:04;;;;;;;1.93;1.83;;;19.60;54.80;;;;;;5025307;28;20435;-83
2021/05/28 01:49:31;;;;;;;1.77;1.67;;;19.60;54.70;;;;;;5025915;28;20434;-83
2021/05/28 01:51:59;;;;;;;2.03;1.93;;;19.60;54.70;;;;;;5026069;28;20439;-83
2021/05/28 01:54:26;;;;;;;2.70;2.10;;;19.60;54.70;;;;;;5025890;28;20464;-83
2021/05/28 01:56:55;;;;;;;2.10;1.90;;;19.60;54.80;;;;;;5025928;28;20452;-83
2021/05/28 01:59:24;;;;;;;3.53;1.77;;;19.60;54.70;;;;;;5025296;28;20450;-83
2021/05/28 02:01:51;;;;;;;1.83;1.60;;;19.60;54.70;;;;;;5025478;28;20530;-83
2021/05/28 02:04:19;;;;;;;1.73;1.50;;;19.60;54.70;;;;;;5025164;28;20436;-83
2021/05/28 02:06:47;;;;;;;1.57;1.47;;;19.60;54.70;;;;;;5025206;28;20546;-83
2021/05/28 02:09:14;;;;;;;1.87;1.67;;;19.60;54.60;;;;;;5025455;28;20528;-83
2021/05/28 02:11:41;;;;;;;2.23;1.90;;;19.60;54.70;;;;;;5025580;28;20533;-83
2021/05/28 02:14:10;;;;;;;2.20;1.73;;;19.60;54.70;;;;;;5025028;28;20467;-83
2021/05/28 02:16:37;;;;;;;2.27;1.90;;;19.60;54.70;;;;;;5025584;28;20470;-83
2021/05/28 02:19:05;;;;;;;1.97;1.87;;;19.60;54.60;;;;;;5020122;28;20494;-82
2021/05/28 02:21:32;;;;;;;1.50;1.50;;;19.60;54.80;;;;;;5025067;28;20443;-82
2021/05/28 02:24:15;;;;;;;3.03;1.80;;;19.60;54.70;;;;;;5024300;28;20754;-82
2021/05/28 02:26:44;;;;;;;1.83;1.73;;;19.60;54.80;;;;;;5025413;28;20467;-82
2021/05/28 02:29:13;;;;;;;1.90;1.80;;;19.60;54.80;;;;;;5024992;28;20420;-82
2021/05/28 02:31:40;;;;;;;3.70;1.80;;;19.60;54.80;;;;;;5025177;28;20455;-82
2021/05/28 02:34:08;;;;;;;1.57;1.47;;;19.60;54.90;;;;;;5025555;28;20491;-81
2021/05/28 02:36:35;;;;;;;2.23;2.03;;;19.60;54.80;;;;;;5024432;28;20439;-82
2021/05/28 02:39:03;;;;;;;2.30;1.67;;;19.60;54.80;;;;;;5024970;28;20441;-82
2021/05/28 02:41:31;;;;;;;2.20;2.00;;;19.60;54.80;;;;;;5025007;28;20476;-82
2021/05/28 02:43:58;;;;;;;2.20;2.00;;;19.60;54.80;;;;;;5024723;28;20447;-82
2021/05/28 02:46:26;;;;;;;2.03;1.93;;;19.60;54.90;;;;;;5025121;28;20485;-82
2021/05/28 02:48:54;;;;;;;3.43;2.00;;;19.60;54.90;;;;;;5024475;28;20504;-81
2021/05/28 02:51:21;;;;;;;2.30;1.90;;;19.60;54.90;;;;;;5025135;28;20489;-83
2021/05/28 02:53:49;;;;;;;2.77;2.13;;;19.60;55.00;;;;;;5024672;28;20493;-83
2021/05/28 02:56:16;;;;;;;1.80;1.70;;;19.60;55.00;;;;;;5024803;28;20414;-84
2021/05/28 02:58:43;;;;;;;4.30;2.10;;;19.60;55.10;;;;;;5024492;28;20476;-83
2021/05/28 03:01:11;;;;;;;2.80;1.70;;;19.60;55.10;;;;;;5025040;28;20486;-83
2021/05/28 03:03:39;;;;;;;1.80;1.70;;;19.60;55.00;;;;;;5024704;28;20463;-83
2021/05/28 03:06:07;;;;;;;1.90;1.80;;;19.60;55.00;;;;;;5024394;28;20452;-83
2021/05/28 03:08:34;;;;;;;2.10;2.00;;;19.60;55.10;;;;;;5024608;28;20486;-83
2021/05/28 03:11:02;;;;;;;1.97;1.70;;;19.60;55.10;;;;;;5024618;28;20490;-83
2021/05/28 03:13:29;;;;;;;3.50;1.80;;;19.60;55.10;;;;;;5024940;28;20547;-83
2021/05/28 03:15:56;;;;;;;1.87;1.70;;;19.60;55.00;;;;;;5024446;28;20454;-83
2021/05/28 03:18:26;;;;;;;1.70;1.60;;;19.50;55.00;;;;;;5024100;28;20513;-83
2021/05/28 03:21:07;;;;;;;2.07;1.87;;;19.50;55.00;;;;;;5023829;28;20475;-83
2021/05/28 03:23:35;;;;;;;1.97;1.87;;;19.60;55.10;;;;;;5023791;28;20471;-83
2021/05/28 03:26:03;;;;;;;3.17;2.07;;;19.50;55.10;;;;;;5024238;28;20523;-83
2021/05/28 03:28:30;;;;;;;2.00;1.83;;;19.50;54.90;;;;;;5024247;28;20462;-83
2021/05/28 03:30:59;;;;;;;1.90;1.77;;;19.50;55.10;;;;;;5024371;28;20422;-82
2021/05/28 03:33:27;;;;;;;1.80;1.70;;;19.50;55.10;;;;;;5024185;28;20440;-82
2021/05/28 03:35:55;;;;;;;2.10;1.80;;;19.50;55.00;;;;;;5024173;28;20489;-83
2021/05/28 03:38:23;;;;;;;2.13;2.03;;;19.50;55.00;;;;;;5024146;28;20443;-83
2021/05/28 03:40:50;;;;;;;2.60;1.97;;;19.60;55.10;;;;;;5019479;28;20577;-83
2021/05/28 03:43:17;;;;;;;4.03;2.00;;;19.60;55.10;;;;;;5023975;28;20403;-83
2021/05/28 03:45:45;;;;;;;1.87;1.77;;;19.50;55.00;;;;;;5024297;28;20508;-83
2021/05/28 03:48:12;;;;;;;2.23;1.90;;;19.50;54.90;;;;;;5024246;28;20478;-83
2021/05/28 03:50:40;;;;;;;1.80;1.70;;;19.50;55.00;;;;;;5024014;28;20514;-83
2021/05/28 03:53:08;;;;;;;1.90;1.80;;;19.60;55.20;;;;;;5024329;28;20487;-83
2021/05/28 03:55:36;;;;;;;1.80;1.70;;;19.60;55.10;;;;;;5023813;28;20423;-83
2021/05/28 03:58:03;;;;;;;1.83;1.73;;;19.60;55.10;;;;;;5023657;28;20501;-83
2021/05/28 04:00:31;;;;;;;2.00;1.90;;;19.60;55.10;;;;;;5023713;28;20479;-83
2021/05/28 04:02:59;;;;;;;3.03;1.70;;;19.60;55.10;;;;;;5024062;28;20512;-84
2021/05/28 04:05:26;;;;;;;2.40;2.20;;;19.50;54.90;;;;;;5023744;28;20409;-84
2021/05/28 04:07:54;;;;;;;2.00;1.90;;;19.50;55.00;;;;;;5023604;28;20471;-84
2021/05/28 04:10:25;;;;;;;2.23;2.03;;;19.50;55.00;;;;;;5024165;28;20439;-84
2021/05/28 04:12:53;;;;;;;2.50;1.87;;;19.50;55.00;;;;;;5023891;28;20443;-84
2021/05/28 04:15:21;;;;;;;2.00;1.90;;;19.50;55.00;;;;;;5023803;28;20432;-84
2021/05/28 04:17:49;;;;;;;1.83;1.73;;;19.50;55.00;;;;;;5023610;28;20497;-84
2021/05/28 04:20:18;;;;;;;3.87;2.03;;;19.50;55.00;;;;;;5023517;28;20484;-84
2021/05/28 04:22:46;;;;;;;2.00;1.90;;;19.50;55.00;;;;;;5023415;28;20452;-84
2021/05/28 04:25:14;;;;;;;2.00;1.90;;;19.50;55.00;;;;;;5024303;28;20540;-85
2021/05/28 04:27:46;;;;;;;2.20;2.00;;;19.60;55.00;;;;;;5023548;28;20436;-85
2021/05/28 04:30:16;;;;;;;1.90;1.80;;;19.60;55.00;;;;;;5024081;28;20439;-85
2021/05/28 04:32:43;;;;;;;2.40;2.20;;;19.50;54.90;;;;;;5023966;28;20439;-85
2021/05/28 04:35:11;;;;;;;2.63;2.00;;;19.50;54.90;;;;;;5023788;28;20439;-85
2021/05/28 04:37:39;;;;;;;2.70;1.90;;;19.60;55.00;;;;;;5025904;28;20515;-85
2021/05/28 04:40:07;;;;;;;1.90;1.80;;;19.60;55.00;;;;;;5027047;28;20494;-85
2021/05/28 04:42:35;;;;;;;2.33;2.10;;;19.60;55.00;;;;;;5027486;28;20451;-84
2021/05/28 04:45:06;;;;;;;1.80;1.70;;;19.60;55.00;;;;;;5027100;28;20461;-84
2021/05/28 04:47:33;;;;;;;3.87;2.03;;;19.60;55.00;;;;;;5026992;28;20427;-84
2021/05/28 04:50:01;;;;;;;2.20;2.10;;;19.60;55.00;;;;;;5027179;28;20428;-84
2021/05/28 04:52:28;;;;;;;2.90;1.80;;;19.60;55.00;;;;;;5027236;28;20471;-84
2021/05/28 04:54:56;;;;;;;2.47;2.10;;;19.60;54.90;;;;;;5027404;28;20509;-83
2021/05/28 04:57:23;;;;;;;2.03;1.87;;;19.60;54.90;;;;;;5026828;28;20451;-83
2021/05/28 04:59:51;;;;;;;1.73;1.63;;;19.60;54.80;;;;;;5027126;28;20539;-83
2021/05/28 05:02:19;;;;;;;2.07;1.90;;;19.60;54.80;;;;;;5026796;28;20459;-84
2021/05/28 05:04:46;;;;;;;2.17;2.07;;;19.70;54.80;;;;;;5026595;28;20471;-83
2021/05/28 05:07:14;;;;;;;2.00;1.90;;;19.70;54.80;;;;;;5026249;28;20463;-84
2021/05/28 05:09:44;;;;;;;2.00;1.80;;;19.70;54.90;;;;;;5027142;28;20423;-83
2021/05/28 05:12:12;;;;;;;2.50;1.70;;;19.70;54.80;;;;;;5026541;28;20406;-84
2021/05/28 05:14:39;;;;;;;2.27;2.07;;;19.70;55.40;;;;;;5026583;28;20428;-84
2021/05/28 05:17:07;;;;;;;2.50;2.30;;;19.70;54.70;;;;;;5026758;28;20505;-84
2021/05/28 05:19:36;;;;;;;2.10;2.00;;;19.80;54.80;;;;;;5026651;28;20452;-84
2021/05/28 05:22:03;;;;;;;2.20;2.10;;;19.80;54.70;;;;;;5026368;28;20530;-84
2021/05/28 05:24:31;;;;;;;1.90;1.80;;;19.80;54.70;;;;;;5026503;28;20435;-83
2021/05/28 05:26:58;;;;;;;2.40;2.30;;;19.80;54.80;;;;;;5026757;28;20439;-83
2021/05/28 05:29:26;;;;;;;2.10;2.00;;;19.80;54.70;;;;;;5026440;28;20463;-83
2021/05/28 05:31:54;;;;;;;2.00;1.90;;;19.90;54.80;;;;;;5026227;28;20410;-83
2021/05/28 05:34:21;;;;;;;2.27;2.07;;;19.90;54.60;;;;;;5026659;28;20490;-83
2021/05/28 05:36:49;;;;;;;2.57;1.87;;;19.90;54.60;;;;;;5026416;28;20517;-83
2021/05/28 05:39:17;;;;;;;1.87;1.77;;;20.00;54.60;;;;;;5026527;28;20517;-83
2021/05/28 05:41:45;;;;;;;1.97;1.87;;;20.00;54.60;;;;;;5026061;28;20552;-83
2021/05/28 05:44:12;;;;;;;2.17;2.03;;;20.00;54.50;;;;;;5026049;28;20455;-83
2021/05/28 05:46:39;;;;;;;3.50;1.93;;;20.00;55.10;;;;;;5026161;28;20515;-84
2021/05/28 05:49:07;;;;;;;3.23;1.97;;;20.00;54.40;;;;;;5025864;28;20471;-84
2021/05/28 05:51:35;;;;;;;1.90;1.80;;;20.00;54.40;;;;;;5026001;28;20463;-84
2021/05/28 05:54:04;;;;;;;2.27;1.93;;;20.00;54.40;;;;;;5025707;28;20454;-84
2021/05/28 05:56:31;;;;;;;1.90;1.80;;;20.00;54.50;;;;;;5026102;28;20493;-83
2021/05/28 05:58:59;;;;;;;2.20;2.10;;;20.00;54.40;;;;;;5025507;28;20531;-83
2021/05/28 06:01:26;;;;;;;2.23;2.13;;;20.00;54.40;;;;;;5025352;28;20733;-83
2021/05/28 06:03:53;;;;;;;2.23;1.83;;;20.00;54.60;;;;;;5026091;28;20482;-83
2021/05/28 06:06:21;;;;;;;2.37;2.17;;;20.00;54.60;;;;;;5025580;28;20493;-83
2021/05/28 06:08:48;;;;;;;2.13;2.03;;;20.00;54.60;;;;;;5025225;28;20501;-83
2021/05/28 06:11:17;;;;;;;1.70;1.60;;;20.00;54.60;;;;;;5025533;28;20506;-83
2021/05/28 06:13:44;;;;;;;2.07;1.97;;;20.00;54.50;;;;;;5025762;28;20464;-83
2021/05/28 06:16:12;;;;;;;2.43;2.07;;;20.00;54.60;;;;;;5025498;28;20438;-83
2021/05/28 06:18:40;;;;;;;2.63;2.30;;;20.00;54.60;;;;;;5025371;28;20490;-83
2021/05/28 06:21:07;;;;;;;2.47;2.27;;;20.00;54.70;;;;;;5025049;28;20575;-83
2021/05/28 06:23:35;;;;;;;1.93;1.83;;;20.00;54.60;;;;;;5025116;28;20451;-83
2021/05/28 06:26:02;;;;;;;2.00;1.90;;;20.00;54.60;;;;;;5025314;28;20457;-83
2021/05/28 06:28:30;;;;;;;2.10;2.00;;;20.00;54.70;;;;;;5025080;28;20467;-84
2021/05/28 06:30:58;;;;;;;3.80;1.73;;;20.10;54.70;;;;;;5025181;28;20440;-83
2021/05/28 06:33:25;;;;;;;4.20;2.17;;;20.10;54.60;;;;;;5025288;28;20474;-83
2021/05/28 06:35:53;;;;;;;2.47;2.27;;;20.20;54.60;;;;;;5025610;28;20431;-83
2021/05/28 06:38:21;;;;;;;2.20;2.10;;;20.20;54.50;;;;;;5025167;28;20443;-83
2021/05/28 06:40:50;;;;;;;2.77;1.70;;;20.30;54.50;;;;;;5025157;28;20522;-84
2021/05/28 06:43:18;;;;;;;1.97;1.87;;;20.30;54.40;;;;;;5024645;28;20431;-83
2021/05/28 06:45:46;;;;;;;2.10;2.00;;;20.30;54.40;;;;;;5025031;28;20603;-83
2021/05/28 06:48:14;;;;;;;2.10;2.00;;;20.40;54.40;;;;;;5024881;28;20443;-83
2021/05/28 06:50:42;;;;;;;2.07;1.97;;;20.40;54.30;;;;;;5024894;28;20435;-82
2021/05/28 06:53:10;;;;;;;2.00;1.80;;;20.40;54.30;;;;;;5024502;28;20435;-82
2021/05/28 06:55:37;;;;;;;2.20;2.10;;;20.50;54.40;;;;;;5024399;28;20439;-82
2021/05/28 06:58:05;;;;;;;2.50;2.13;;;20.50;54.30;;;;;;5024155;28;20470;-82
2021/05/28 07:00:32;;;;;;;2.07;1.67;;;20.50;54.30;;;;;;5023641;28;20529;-83
2021/05/28 07:03:01;;;;;;;3.53;2.03;;;20.60;54.30;;;;;;5024452;28;20463;-83
2021/05/28 07:05:28;;;;;;;2.03;1.93;;;20.70;54.30;;;;;;5024666;28;20423;-82
2021/05/28 07:07:56;;;;;;;2.30;2.10;;;20.70;54.20;;;;;;5024465;28;20448;-82
2021/05/28 07:10:23;;;;;;;2.00;1.90;;;20.80;54.30;;;;;;5024368;28;20428;-82
2021/05/28 07:12:52;;;;;;;2.20;2.10;;;20.90;54.20;;;;;;5024432;28;20422;-82
2021/05/28 07:15:20;;;;;;;2.20;2.03;;;20.90;54.00;;;;;;5024369;28;20451;-82
2021/05/28 07:17:47;;;;;;;2.20;2.10;;;21.00;54.00;;;;;;5024523;28;20447;-82
2021/05/28 07:20:16;;;;;;;2.90;2.13;;;21.00;53.90;;;;;;5024693;28;20456;-82
2021/05/28 07:22:43;;;;;;;1.87;1.80;;;21.00;53.90;;;;;;5024238;28;20562;-82
2021/05/28 07:25:12;;;;;;;1.87;1.77;;;21.10;53.90;;;;;;5024391;28;20447;-83
2021/05/28 07:27:40;;;;;;;2.10;2.00;;;21.10;53.90;;;;;;5024475;28;20439;-83
2021/05/28 07:30:09;;;;;;;2.20;2.10;;;21.20;54.00;;;;;;5023983;28;20578;-82
2021/05/28 07:32:37;;;;;;;2.03;1.83;;;21.30;54.50;;;;;;5024509;28;20402;-82
2021/05/28 07:35:06;;;;;;;2.47;2.10;;;21.30;53.90;;;;;;5024901;28;20439;-82
2021/05/28 07:37:34;;;;;;;2.00;1.90;;;21.40;53.80;;;;;;5024465;28;20455;-82
2021/05/28 07:40:03;;;;;;;2.07;1.97;;;21.50;53.90;;;;;;5024220;28;20402;-82
2021/05/28 07:42:30;;;;;;;2.33;2.13;;;21.50;54.00;;;;;;5022298;28;20552;-83
2021/05/28 07:44:58;;;;;;;2.63;2.47;;;21.70;54.00;;;;;;5024297;28;20527;-82
2021/05/28 07:47:25;;;;;;;2.10;2.00;;;21.80;54.20;;;;;;5024618;28;20435;-82
2021/05/28 07:49:53;;;;;;;2.33;2.20;;;21.90;54.00;;;;;;5024451;28;20410;-83
2021/05/28 07:52:20;;;;;;;1.90;1.80;;;21.90;53.90;;;;;;5024327;28;20500;-83
2021/05/28 07:54:49;;;;;;;2.00;1.90;;;22.00;53.90;;;;;;5024247;28;20477;-83
2021/05/28 07:57:17;;;;;;;2.03;1.87;;;22.10;54.00;;;;;;5024364;28;20442;-85
2021/05/28 07:59:44;;;;;;;1.63;1.63;;;22.20;54.00;;;;;;5024413;28;20451;-83
2021/05/28 08:02:12;;;;;;;3.60;2.50;;;22.30;53.90;;;;;;5024230;28;20446;-83
2021/05/28 08:04:39;;;;;;;2.30;2.10;;;22.50;53.90;;;;;;5024512;28;20437;-83
2021/05/28 08:07:07;;;;;;;2.40;2.17;;;22.60;53.90;;;;;;5023991;28;20472;-83
2021/05/28 08:09:34;;;;;;;2.03;1.93;;;22.70;53.80;;;;;;5024297;28;20413;-83
2021/05/28 08:12:03;;;;;;;1.77;1.67;;;22.80;53.70;;;;;;5027448;28;20410;-84
2021/05/28 08:14:31;;;;;;;1.93;1.83;;;23.00;53.80;;;;;;5028148;28;20435;-83
2021/05/28 08:16:58;;;;;;;2.00;1.90;;;23.10;53.70;;;;;;5028387;28;20524;-83
2021/05/28 08:19:26;;;;;;;2.83;2.00;;;23.20;53.60;;;;;;5028255;28;20414;-83
2021/05/28 08:21:53;;;;;;;1.90;1.80;;;23.30;53.60;;;;;;5027974;28;20441;-83
2021/05/28 08:24:21;;;;;;;2.17;2.07;;;23.50;53.60;;;;;;5028202;28;20493;-83
2021/05/28 08:26:48;;;;;;;1.87;1.80;;;23.60;53.50;;;;;;5027739;28;20478;-83
2021/05/28 08:29:16;;;;;;;2.00;1.90;;;23.80;53.60;;;;;;5028331;28;20443;-84
2021/05/28 08:31:44;;;;;;;2.07;1.97;;;23.90;53.40;;;;;;5027943;28;20437;-84
2021/05/28 08:34:11;;;;;;;1.80;1.70;;;24.10;53.40;;;;;;5027984;28;20475;-84
2021/05/28 08:36:39;;;;;;;2.10;1.90;;;24.20;53.10;;;;;;5027524;28;20414;-84
2021/05/28 08:39:06;;;;;;;2.07;1.97;;;24.40;53.20;;;;;;5024158;28;20483;-84
2021/05/28 08:41:34;;;;;;;2.00;1.80;;;24.50;53.00;;;;;;5027336;28;20545;-84
2021/05/28 08:44:02;;;;;;;1.97;1.87;;;24.80;53.00;;;;;;5027027;28;20443;-84
2021/05/28 08:46:31;;;;;;;2.00;1.90;;;25.00;52.80;;;;;;5027576;28;20481;-82
2021/05/28 08:48:58;;;;;;;1.97;1.87;;;25.10;52.40;;;;;;5027454;28;20406;-82
2021/05/28 08:51:26;;;;;;;1.90;1.77;;;25.20;52.20;;;;;;5027475;28;20523;-82
2021/05/28 08:53:53;;;;;;;1.90;1.80;;;25.20;52.00;;;;;;5027149;28;20406;-82
2021/05/28 08:56:20;;;;;;;2.40;1.87;;;25.10;52.00;;;;;;5027979;28;20494;-82
2021/05/28 08:58:48;;;;;;;1.80;1.70;;;25.10;52.20;;;;;;5027023;28;20444;-82
2021/05/28 09:01:15;;;;;;;1.97;1.90;;;25.10;52.30;;;;;;5027368;28;20426;-82
2021/05/28 09:03:44;;;;;;;2.10;2.00;;;25.20;52.30;;;;;;5027489;28;20450;-82
2021/05/28 09:06:18;;;;;;;2.00;1.90;;;25.40;52.30;;;;;;5027197;28;20414;-82
2021/05/28 09:08:45;;;;;;;1.80;1.70;;;25.60;52.20;;;;;;5029189;28;20432;-82
2021/05/28 09:11:14;;;;;;;1.70;1.70;;;25.80;52.00;;;;;;5027939;28;20476;-83
2021/05/28 09:13:46;;;;;;;1.80;1.70;;;25.90;51.70;;;;;;5027568;28;20422;-82
2021/05/28 09:16:14;;;;;;;2.00;1.90;;;25.90;51.40;;;;;;5026764;28;20410;-81
2021/05/28 09:18:45;;;;;;;1.50;1.50;;;26.00;51.60;;;;;;5026924;28;20427;-81
2021/05/28 09:21:14;;;;;;;1.90;1.80;;;26.10;51.50;;;;;;5026756;28;20513;-81
2021/05/28 09:23:42;;;;;;;1.70;1.60;;;26.10;51.30;;;;;;5025993;28;20476;-80
2021/05/28 09:26:12;;;;;;;1.83;1.73;;;26.20;51.60;;;;;;5026738;28;20432;-80
2021/05/28 09:28:42;;;;;;;1.90;1.80;;;26.30;51.50;;;;;;5026235;28;20561;-80
2021/05/28 09:31:13;;;;;;;1.90;1.80;;;26.60;51.50;;;;;;5022458;28;20531;-80
2021/05/28 09:33:42;;;;;;;1.80;1.70;;;26.90;51.20;;;;;;5026791;28;20526;-80
2021/05/28 09:36:12;;;;;;;1.50;1.40;;;27.10;50.90;;;;;;5026830;28;20439;-80
2021/05/28 09:38:39;;;;;;;1.90;1.80;;;27.40;50.60;;;;;;5025694;28;20435;-81
2021/05/28 09:41:07;;;;;;;1.73;1.63;;;27.70;50.40;;;;;;5026074;28;20436;-81
2021/05/28 09:43:34;;;;;;;1.50;1.50;;;27.90;50.00;;;;;;5025438;28;20487;-81
2021/05/28 09:46:11;;;;;;;1.87;1.77;;;28.20;49.80;;;;;;5026446;28;20447;-81
2021/05/28 09:48:38;;;;;;;1.67;1.57;;;28.50;49.50;;;;;;5025727;28;20507;-81
2021/05/28 09:51:07;;;;;;;1.50;1.40;;;28.70;49.00;;;;;;5025997;28;20418;-81
2021/05/28 09:53:38;;;;;;;1.83;1.47;;;28.60;48.70;;;;;;5025685;28;20482;-81
2021/05/28 09:56:25;;;;;;;1.93;1.77;;;28.40;48.70;;;;;;5026441;28;20439;-81
2021/05/28 09:58:56;;;;;;;1.83;1.70;;;28.30;49.30;;;;;;5025400;28;20465;-80
2021/05/28 10:01:24;;;;;;;2.00;1.90;;;28.40;49.50;;;;;;5024510;28;20475;-79
2021/05/28 10:04:02;;;;;;;1.60;1.50;;;28.60;49.50;;;;;;5025920;28;20479;-79
2021/05/28 10:06:29;;;;;;;1.80;1.70;;;28.90;49.40;;;;;;5025745;28;20471;-79
2021/05/28 10:09:01;;;;;;;1.50;1.50;;;29.20;49.00;;;;;;5025853;28;20534;-78
2021/05/28 10:11:29;;;;;;;1.87;1.77;;;29.50;48.70;;;;;;5025650;28;20439;-79
2021/05/28 10:13:56;;;;;;;1.90;1.80;;;29.60;48.40;;;;;;5026104;28;20427;-79
2021/05/28 10:16:24;;;;;;;1.30;1.30;;;29.80;48.40;;;;;;5025364;28;20448;-79
2021/05/28 10:18:52;;;;;;;1.73;1.60;;;29.90;48.30;;;;;;5025780;28;20439;-79
2021/05/28 10:21:20;;;;;;;1.53;1.47;;;29.80;48.00;;;;;;5025713;28;20440;-79
2021/05/28 10:23:47;;;;;;;1.23;1.20;;;30.00;48.20;;;;;;5025345;28;20558;-80
2021/05/28 10:26:16;;;;;;;1.70;1.60;;;30.00;48.10;;;;;;5025773;28;20519;-79
2021/05/28 10:28:44;;;;;;;1.30;1.30;;;30.10;48.00;;;;;;5025246;28;20506;-79
2021/05/28 10:31:12;;;;;;;1.40;1.33;;;30.20;47.80;;;;;;5025095;28;20463;-79
2021/05/28 10:33:43;;;;;;;1.33;1.30;;;30.30;47.80;;;;;;5025394;28;20440;-79
2021/05/28 10:36:11;;;;;;;1.63;1.53;;;30.30;47.80;;;;;;5025387;28;20486;-79
2021/05/28 10:38:43;;;;;;;1.60;1.50;;;30.50;47.70;;;;;;5025318;28;20470;-80
2021/05/28 10:41:34;;;;;;;1.70;1.60;;;30.50;47.20;;;;;;5025765;28;20479;-80
2021/05/28 10:44:06;;;;;;;1.40;1.30;;;30.70;47.30;;;;;;5024887;28;20543;-80
2021/05/28 10:46:34;;;;;;;1.67;1.60;;;30.80;47.40;;;;;;5025639;28;20441;-79
2021/05/28 10:49:10;;;;;;;1.77;1.67;;;31.10;47.40;;;;;;5025225;28;20501;-79
2021/05/28 10:51:59;;;;;;;1.50;1.40;;;31.40;47.00;;;;;;5024846;28;20526;-80
2021/05/28 10:54:28;;;;;;;1.10;1.10;;;31.80;46.60;;;;;;5024564;28;20486;-80
2021/05/28 10:57:13;;;;;;;2.20;1.70;;;32.00;46.20;;;;;;5025007;28;20443;-79
2021/05/28 10:59:45;;;;;;;1.50;1.40;;;32.20;45.80;;;;;;5021138;28;20470;-80
2021/05/28 11:02:12;;;;;;;1.30;1.30;;;32.30;45.50;;;;;;5024862;28;20483;-79
2021/05/28 11:04:56;;;;;;;1.30;1.20;;;32.30;45.20;;;;;;5024751;28;20455;-79
2021/05/28 11:07:23;;;;;;;1.73;1.60;;;32.10;45.10;;;;;;5025027;28;20448;-79
2021/05/28 11:09:51;;;;;;;1.43;1.43;;;32.20;45.20;;;;;;5024872;28;20464;-79
2021/05/28 11:12:40;;;;;;;1.70;1.60;;;32.20;45.20;;;;;;5024783;28;20525;-79
2021/05/28 11:15:10;;;;;;;1.77;1.30;;;32.10;44.90;;;;;;5024764;28;20455;-80
2021/05/28 11:17:51;;;;;;;1.60;1.50;;;31.90;45.00;;;;;;5024337;28;20440;-79
2021/05/28 11:20:24;;;;;;;1.50;1.40;;;31.50;45.30;;;;;;5024781;28;20452;-79
2021/05/28 11:22:51;;;;;;;1.50;1.40;;;31.40;45.60;;;;;;5024475;28;20475;-79
2021/05/28 11:25:19;;;;;;;1.53;1.43;;;31.30;45.60;;;;;;5024928;28;20530;-80
2021/05/28 11:27:56;;;;;;;1.50;1.40;;;31.60;45.80;;;;;;5024582;28;20526;-80
2021/05/28 11:30:39;;;;;;;1.50;1.43;;;33.40;44.30;;;;;;5024349;28;20514;-79
2021/05/28 11:33:07;;;;;;;1.30;1.20;;;34.20;42.30;;;;;;5022753;28;20427;-80
2021/05/28 11:35:38;;;;;;;1.10;1.10;;;35.20;40.90;;;;;;5024384;28;20435;-80
2021/05/28 11:38:06;;;;;;;1.60;1.50;;;36.00;39.30;;;;;;5024538;28;20497;-79
2021/05/28 11:40:38;;;;;;;1.30;1.30;;;35.40;39.00;;;;;;5024734;28;20459;-79
2021/05/28 11:43:07;;;;;;;1.60;1.50;;;34.60;39.50;;;;;;5024545;28;20558;-79
2021/05/28 11:45:34;;;;;;;2.03;1.20;;;35.00;40.30;;;;;;5025211;28;20449;-79
2021/05/28 11:48:02;;;;;;;1.37;1.27;;;35.70;40.00;;;;;;5028363;28;20539;-79
2021/05/28 11:50:39;;;;;;;1.20;1.20;;;36.50;38.50;;;;;;5028295;28;20457;-80
2021/05/28 11:53:07;;;;;;;1.20;1.20;;;37.00;37.60;;;;;;5028240;28;20469;-80
2021/05/28 11:55:42;;;;;;;1.13;1.13;;;38.10;36.80;;;;;;5028204;28;20432;-80
2021/05/28 11:58:12;;;;;;;1.13;1.03;;;38.20;35.50;;;;;;5027630;28;20441;-80
2021/05/28 12:00:39;;;;;;;1.90;1.10;;;38.10;35.60;;;;;;5028400;28;20727;-79
2021/05/28 12:03:07;;;;;;;1.00;1.00;;;37.80;35.20;;;;;;5027479;28;20475;-79
2021/05/28 12:05:36;;;;;;;1.00;1.00;;;37.60;35.60;;;;;;5028046;28;20496;-79
2021/05/28 12:08:19;;;;;;;1.17;1.17;;;36.60;37.00;;;;;;5027477;28;20447;-79
2021/05/28 12:10:47;;;;;;;1.20;1.10;;;36.80;36.80;;;;;;5026050;28;20439;-80
2021/05/28 12:13:16;;;;;;;1.23;1.23;;;37.10;37.50;;;;;;5027568;28;20431;-80
2021/05/28 12:15:44;;;;;;;1.00;1.00;;;36.10;37.10;;;;;;5027397;28;20435;-80
2021/05/28 12:18:17;;;;;;;1.40;1.40;;;35.40;38.00;;;;;;5027898;28;20438;-80
2021/05/28 12:20:46;;;;;;;1.17;1.17;;;35.00;39.30;;;;;;5027799;28;20503;-80
2021/05/28 12:23:17;;;;;;;1.37;1.37;;;34.70;39.30;;;;;;5027314;28;20525;-79
2021/05/28 12:25:50;;;;;;;1.40;1.40;;;34.40;39.50;;;;;;5027837;28;20507;-79
2021/05/28 12:28:29;;;;;;;1.40;1.30;;;34.50;40.60;;;;;;5027355;28;20465;-79
2021/05/28 12:30:58;;;;;;;1.40;1.40;;;34.50;39.80;;;;;;5025798;28;20487;-79
2021/05/28 12:33:31;;;;;;;1.10;1.10;;;34.30;40.10;;;;;;5026104;28;20455;-81
2021/05/28 12:36:00;;;;;;;1.10;1.10;;;34.30;40.20;;;;;;5026621;28;20526;-80
2021/05/28 12:38:38;;;;;;;1.07;1.07;;;34.50;39.80;;;;;;5025961;28;20531;-80
2021/05/28 12:41:06;;;;;;;1.20;1.20;;;34.50;39.90;;;;;;5026211;28;20474;-80
2021/05/28 12:43:36;;;;;;;1.20;1.10;;;34.20;39.90;;;;;;5026267;28;20471;-81
2021/05/28 12:46:04;;;;;;;1.20;1.20;;;33.90;40.40;;;;;;5026404;28;20432;-81
2021/05/28 12:48:50;;;;;;;1.13;1.13;;;33.80;40.80;;;;;;5026194;28;20490;-81
2021/05/28 12:51:18;;;;;;;1.17;1.17;;;33.60;40.50;;;;;;5024754;28;20419;-80
2021/05/28 12:53:46;;;;;;;1.20;1.20;;;33.30;40.80;;;;;;5026188;28;20446;-80
2021/05/28 12:56:20;;;;;;;1.10;1.10;;;33.00;41.00;;;;;;5025855;28;20486;-80